Barfleur — FNIE — position and weather

sailwx.info

Track history (hours):
 
Tides and Currents Weather Stations Pressure Air Temp Water Temp Dewpoint Dewpoint Depression Visibility Wind Speed Wind Dir Waves Ship Positions

Barfleur

Operator: Brittany Ferries

Last reported at 2014-Jul-24 08:22 UTC. Time now 2014-Jul-24 13:07 UTC.
Position N 50°35' W 001°54'.

Length 158 m; draft 5 m.

Type: Passenger vessel. MMSI: 227289000.

Date/timePositionNaut miles runAvg speedWind from/ knotsBaromVisibWave heightAir tempDewpointWater temp
2014-Jul-24 08:22N 50°35' W 001°54'7 0.6
2014-Jul-23 20:24N 50°42' W 001°57'8 0.7
2014-Jul-23 08:29N 50°34' W 001°53'9 0.7
2014-Jul-22 20:29N 50°42' W 001°60'8 0.6
2014-Jul-22 08:16N 50°35' W 001°55'7 0.6
2014-Jul-21 20:25N 50°42' W 001°57'1 8.5
2014-Jul-21 20:17N 50°41' W 001°57'6 0.5
2014-Jul-21 08:11N 50°35' W 001°54'7 0.6
2014-Jul-20 20:22N 50°42' W 001°57'1214.4
2014-Jul-20 19:34N 50°31' W 001°52'3 0.3
2014-Jul-20 08:11N 50°34' W 001°53'9 1.3
2014-Jul-20 01:13N 50°42' W 001°59'0 0.0
2014-Jul-20 00:32N 50°42' W 001°59'0 0.0
2014-Jul-19 23:29N 50°42' W 001°59'0 0.0
2014-Jul-19 22:33N 50°42' W 001°59'0 0.0
2014-Jul-19 21:33N 50°42' W 001°59'0 0.1
2014-Jul-19 20:33N 50°42' W 001°60'8 0.6
2014-Jul-19 08:16N 50°35' W 001°53'8 0.7
2014-Jul-18 21:08N 50°42' W 001°59'0 0.1
2014-Jul-18 20:33N 50°42' W 001°59'1211.7
2014-Jul-18 19:32N 50°31' W 001°52'1818.0
2014-Jul-18 18:33N 50°14' W 001°48'1918.3
2014-Jul-18 17:30N 49°55' W 001°41'23 2.7
2014-Jul-18 09:12N 50°18' W 001°48'1718.1
2014-Jul-18 08:14N 50°35' W 001°53'9 5.0
2014-Jul-18 06:29N 50°42' W 001°59'0 0.0
2014-Jul-17 23:18N 50°42' W 001°59'0 0.0
2014-Jul-17 21:17N 50°42' W 001°59'1 1.7
2014-Jul-17 20:29N 50°42' W 001°57'1414.8
2014-Jul-17 19:32N 50°28' W 001°51'15 1.5
2014-Jul-17 09:30N 50°14' W 001°50'1818.2
2014-Jul-17 08:32N 50°32' W 001°53'1210.4
2014-Jul-17 07:25N 50°42' W 001°59'0 0.0
2014-Jul-17 06:32N 50°42' W 001°59'0 0.4
2014-Jul-17 05:33N 50°42' W 001°59'6 5.9
2014-Jul-17 04:33N 50°39' W 001°51'2 1.7
2014-Jul-17 03:33N 50°40' W 001°49'1 0.9
2014-Jul-17 02:33N 50°40' W 001°48'0 0.4
2014-Jul-17 01:33N 50°40' W 001°47'1211.6
2014-Jul-17 00:33N 50°28' W 001°45'1212.0
2014-Jul-16 23:32N 50°16' W 001°42'1111.6
2014-Jul-16 22:33N 50°05' W 001°39'13 1.0
2014-Jul-16 09:33N 50°15' W 001°51'1817.8
2014-Jul-16 08:32N 50°33' W 001°54'10 4.9
2014-Jul-16 06:33N 50°42' W 001°59'1 1.5
2014-Jul-16 05:34N 50°42' W 001°57'6 5.7
2014-Jul-16 04:34N 50°37' W 001°52'2 1.8
2014-Jul-16 03:33N 50°39' W 001°49'1 1.5
2014-Jul-16 02:33N 50°39' W 001°47'1 1.4
2014-Jul-16 01:34N 50°39' W 001°45'1111.3
2014-Jul-16 00:34N 50°28' W 001°40'1212.2
2014-Jul-15 23:33N 50°15' W 001°39'1212.1
2014-Jul-15 22:33N 50°03' W 001°38'24 2.2
2014-Jul-15 11:32N 49°39' W 001°37'2516.7
2014-Jul-15 10:04N 50°03' W 001°45'2717.6
2014-Jul-15 08:33N 50°29' W 001°52'14 5.9
2014-Jul-15 06:12N 50°42' W 001°59'2 2.5
2014-Jul-15 05:33N 50°42' W 001°57'7 7.2
2014-Jul-15 04:32N 50°37' W 001°48'1 1.1
2014-Jul-15 03:33N 50°38' W 001°46'2 1.8
2014-Jul-15 02:33N 50°39' W 001°45'2 1.8
2014-Jul-15 01:33N 50°39' W 001°42'1 0.7
2014-Jul-15 00:33N 50°39' W 001°43'0 0.2
2014-Jul-14 23:33N 50°39' W 001°42'2 1.8
2014-Jul-14 22:33N 50°39' W 001°45'8 8.0
2014-Jul-14 21:32N 50°41' W 001°57'0 0.4
2014-Jul-14 20:24N 50°42' W 001°57'1416.6
2014-Jul-14 19:33N 50°28' W 001°53'4018.2
2014-Jul-14 17:22N 49°49' W 001°42'11 3.8
2014-Jul-14 14:31N 49°39' W 001°37'0 0.0
2014-Jul-14 13:33N 49°39' W 001°37'5110.2
2014-Jul-14 08:33N 50°29' W 001°49'  
Track history (hours):
 
Tides and Currents Weather Stations Pressure Air Temp Water Temp Dewpoint Dewpoint Depression Visibility Wind Speed Wind Dir Waves Ship Positions

Barfleur

Operator: Brittany Ferries

Last reported at 2014-Jul-24 08:22 UTC. Time now 2014-Jul-24 13:07 UTC.
Position N 50°35' W 001°54'.

Length 158 m; draft 5 m.

Type: Passenger vessel. MMSI: 227289000.

Date/timePositionNaut miles runAvg speedWind from/ knotsBaromVisibWave heightAir tempDewpointWater temp
2014-Jul-24 08:22N 50°35' W 001°54'7 0.6
2014-Jul-23 20:24N 50°42' W 001°57'8 0.7
2014-Jul-23 08:29N 50°34' W 001°53'9 0.7
2014-Jul-22 20:29N 50°42' W 001°60'8 0.6
2014-Jul-22 08:16N 50°35' W 001°55'7 0.6
2014-Jul-21 20:25N 50°42' W 001°57'1 8.5
2014-Jul-21 20:17N 50°41' W 001°57'6 0.5
2014-Jul-21 08:11N 50°35' W 001°54'7 0.6
2014-Jul-20 20:22N 50°42' W 001°57'1214.4
2014-Jul-20 19:34N 50°31' W 001°52'3 0.3
2014-Jul-20 08:11N 50°34' W 001°53'9 1.3
2014-Jul-20 01:13N 50°42' W 001°59'0 0.0
2014-Jul-20 00:32N 50°42' W 001°59'0 0.0
2014-Jul-19 23:29N 50°42' W 001°59'0 0.0
2014-Jul-19 22:33N 50°42' W 001°59'0 0.0
2014-Jul-19 21:33N 50°42' W 001°59'0 0.1
2014-Jul-19 20:33N 50°42' W 001°60'8 0.6
2014-Jul-19 08:16N 50°35' W 001°53'8 0.7
2014-Jul-18 21:08N 50°42' W 001°59'0 0.1
2014-Jul-18 20:33N 50°42' W 001°59'1211.7
2014-Jul-18 19:32N 50°31' W 001°52'1818.0
2014-Jul-18 18:33N 50°14' W 001°48'1918.3
2014-Jul-18 17:30N 49°55' W 001°41'23 2.7
2014-Jul-18 09:12N 50°18' W 001°48'1718.1
2014-Jul-18 08:14N 50°35' W 001°53'9 5.0
2014-Jul-18 06:29N 50°42' W 001°59'0 0.0
2014-Jul-17 23:18N 50°42' W 001°59'0 0.0
2014-Jul-17 21:17N 50°42' W 001°59'1 1.7
2014-Jul-17 20:29N 50°42' W 001°57'1414.8
2014-Jul-17 19:32N 50°28' W 001°51'15 1.5
2014-Jul-17 09:30N 50°14' W 001°50'1818.2
2014-Jul-17 08:32N 50°32' W 001°53'1210.4
2014-Jul-17 07:25N 50°42' W 001°59'0 0.0
2014-Jul-17 06:32N 50°42' W 001°59'0 0.4
2014-Jul-17 05:33N 50°42' W 001°59'6 5.9
2014-Jul-17 04:33N 50°39' W 001°51'2 1.7
2014-Jul-17 03:33N 50°40' W 001°49'1 0.9
2014-Jul-17 02:33N 50°40' W 001°48'0 0.4
2014-Jul-17 01:33N 50°40' W 001°47'1211.6
2014-Jul-17 00:33N 50°28' W 001°45'1212.0
2014-Jul-16 23:32N 50°16' W 001°42'1111.6
2014-Jul-16 22:33N 50°05' W 001°39'13 1.0
2014-Jul-16 09:33N 50°15' W 001°51'1817.8
2014-Jul-16 08:32N 50°33' W 001°54'10 4.9
2014-Jul-16 06:33N 50°42' W 001°59'1 1.5
2014-Jul-16 05:34N 50°42' W 001°57'6 5.7
2014-Jul-16 04:34N 50°37' W 001°52'2 1.8
2014-Jul-16 03:33N 50°39' W 001°49'1 1.5
2014-Jul-16 02:33N 50°39' W 001°47'1 1.4
2014-Jul-16 01:34N 50°39' W 001°45'1111.3
2014-Jul-16 00:34N 50°28' W 001°40'1212.2
2014-Jul-15 23:33N 50°15' W 001°39'1212.1
2014-Jul-15 22:33N 50°03' W 001°38'24 2.2
2014-Jul-15 11:32N 49°39' W 001°37'2516.7
2014-Jul-15 10:04N 50°03' W 001°45'2717.6
2014-Jul-15 08:33N 50°29' W 001°52'14 5.9
2014-Jul-15 06:12N 50°42' W 001°59'2 2.5
2014-Jul-15 05:33N 50°42' W 001°57'7 7.2
2014-Jul-15 04:32N 50°37' W 001°48'1 1.1
2014-Jul-15 03:33N 50°38' W 001°46'2 1.8
2014-Jul-15 02:33N 50°39' W 001°45'2 1.8
2014-Jul-15 01:33N 50°39' W 001°42'1 0.7
2014-Jul-15 00:33N 50°39' W 001°43'0 0.2
2014-Jul-14 23:33N 50°39' W 001°42'2 1.8
2014-Jul-14 22:33N 50°39' W 001°45'8 8.0
2014-Jul-14 21:32N 50°41' W 001°57'0 0.4
2014-Jul-14 20:24N 50°42' W 001°57'1416.6
2014-Jul-14 19:33N 50°28' W 001°53'4018.2
2014-Jul-14 17:22N 49°49' W 001°42'11 3.8
2014-Jul-14 14:31N 49°39' W 001°37'0 0.0
2014-Jul-14 13:33N 49°39' W 001°37'5110.2
2014-Jul-14 08:33N 50°29' W 001°49'  

Dump ship's entire track history